Terminal Aerodrome Forecast
Issued by NWS Newport/Morehead City, NC

Home | Current Version | Previous Version | Graphics & Text | Print | Product List | Glossary On
Versions: 1 2 3 4 5 6 7 8 9 10 11 12
366
FTUS42 KMHX 220528
TAFEWN
TAF
KEWN 220528Z 2206/2306 33006KT P6SM SCT090
     FM221300 36008KT P6SM FEW060
     FM222300 06003KT P6SM SKC=

USA.gov is the U.S. government's official web portal to all federal, state and local government web resources and services.